http://www.ohio.gov http://www.dot.state.oh.us
W W W . B U C K E Y E T R A F F I C . O R G

1-SR49 @ SR249 (200000) Status Air Temp Sfc Temp Sub Temp Dew Temp Wind Precip Traffic Updated
Sensor [A]: Atmospheric - 82.4 - - 60.1 13.7 / W - - 7/31/2015 1:11:53 PM
Sensor [1]: SR 249 EB Lane Wet - 100.4 - - - - 1 / 9.9 7/31/2015 1:11:53 PM
2-SR-309 @ SR-235 (200001) Status Air Temp Sfc Temp Sub Temp Dew Temp Wind Precip Traffic Updated
Sensor [A]: Atmospheric - 82.4 - - 55.0 8.7 / N - - 7/31/2015 1:11:09 PM
Sensor [0]: SR309 EB Dry - 134.6 91.4 - - - - 7/31/2015 1:11:09 PM
Sensor [1]: SR235 SB Dry - 118.4 - - - - - 7/31/2015 1:11:09 PM
3-US24 @ Indiana Line (200002) Status Air Temp Sfc Temp Sub Temp Dew Temp Wind Precip Traffic Updated
Sensor [A]: Atmospheric - 85.1 - - 54.3 13.0 / W - - 7/31/2015 1:11:55 PM
Sensor [0]: EB Driving Dry - 107.6 84.2 - - - 0 / 9.9 7/31/2015 1:11:55 PM
Sensor [1]: WB Driving Dry - 107.6 - - - - 0 / 9.9 7/31/2015 1:11:55 PM
4-US224 @ SR190 (200003) Status Air Temp Sfc Temp Sub Temp Dew Temp Wind Precip Traffic Updated
Sensor [A]: Atmospheric - 84.6 - - 56.7 9.9 / W - - 7/31/2015 1:08:45 PM
Sensor [0]: Eastbound Driving Lane Dry - 130.1 - - - - 1 / 65.2 7/31/2015 1:08:45 PM
5- US30 @ SR49 North (200004) Status Air Temp Sfc Temp Sub Temp Dew Temp Wind Precip Traffic Updated
Sensor [A]: Atmospheric - 84.0 - - 59.4 14.3 / SW - - 7/31/2015 1:12:30 PM
Sensor [0]: US30 Westbound Driving Dry - 111.2 - - - - 0 / 9.9 7/31/2015 1:12:30 PM
Sensor [1]: US30 Eastbound Driving Dry - 109.4 - - - - 0 / 9.9 7/31/2015 1:12:30 PM
6-US 30/23 @ E. Wyandot Ave. (MM 16.3) (200005) Status Air Temp Sfc Temp Sub Temp Dew Temp Wind Precip Traffic Updated
Sensor [A]: Atmospheric - 84.2 - - 57.4 10.6 / W - - 7/31/2015 1:12:32 PM
7-US30 Bypass @ SR4 (200006) Status Air Temp Sfc Temp Sub Temp Dew Temp Wind Precip Traffic Updated
Sensor [A]: Atmospheric - 81.5 - - 59.9 10.6 / NW - - 7/31/2015 1:09:41 PM
Sensor [0]: US30 East Bound Driving Lane Dry - 112.1 - - - - 20 / 60.9 7/31/2015 1:09:41 PM
Sensor [1]: US30 West Bound Driving Lane Dry - 114.4 - - - - 80 / 158.4 7/31/2015 1:09:41 PM
8-Huron County Garage (200007) Status Air Temp Sfc Temp Sub Temp Dew Temp Wind Precip Traffic Updated
Sensor [A]: Atmospheric - 82.4 - - 61.0 11.2 / W - - 7/31/2015 1:10:24 PM
Sensor [0]: US250 NB Lane Dry - 111.2 - - - - 0 / 9.9 7/31/2015 1:10:24 PM
Sensor [1]: US250 SB Lane Dry - 113.0 - - - - 0 / 9.9 7/31/2015 1:10:24 PM
9-I77 MM 109 @ Belden Village (200008) Status Air Temp Sfc Temp Sub Temp Dew Temp Wind Precip Traffic Updated
Sensor [A]: Atmospheric - 83.5 - - 54.5 9.9 / N - - 7/31/2015 1:12:00 PM
Sensor [1]: Bridgedeck over I-77 Dry - 107.6 - - - - 1 / 9.9 7/31/2015 1:12:00 PM
10-SR5@SR45 (200009) Status Air Temp Sfc Temp Sub Temp Dew Temp Wind Precip Traffic Updated
Sensor [A]: Atmospheric - 83.8 - - 51.6 8.7 / W - - 7/31/2015 1:10:41 PM
Sensor [0]: EB Driving Dry - 135.5 86.9 - - - - 7/31/2015 1:10:41 PM
Sensor [1]: SR5 EB Passing Dry - 137.3 - - - - - 7/31/2015 1:10:41 PM
Sensor [2]: SR5 WB Passing Bridgedeck Dry - 133.7 - - - - - 7/31/2015 1:10:41 PM
Sensor [3]: SR5 EB passing Bridgedeck Dry - 114.8 - - - - - 7/31/2015 1:10:41 PM
11-SR36@SR206 (200010) Status Air Temp Sfc Temp Sub Temp Dew Temp Wind Precip Traffic Updated
Sensor [A]: Atmospheric - 70.9 - - 61.7 2.5 / W - - 7/31/2015 9:11:24 AM
Sensor [0]: US36 EB Dry - 90.5 - - - - - 7/31/2015 9:11:24 AM
12- US 33 @ MM 11.5 (200011) Status Air Temp Sfc Temp Sub Temp Dew Temp Wind Precip Traffic Updated
Sensor [A]: Atmospheric - 83.3 - - 68.7 5.6 / W - - 7/31/2015 1:12:32 PM
Sensor [0]: US33 EB Driving Dry - 115.3 84.0 - - - - 7/31/2015 1:12:32 PM
Sensor [1]: US33 WB Driving Lane Bridgedeck Dry - 108.0 - - - - - 7/31/2015 1:12:32 PM
13-Knox County Garage (200012) Status Air Temp Sfc Temp Sub Temp Dew Temp Wind Precip Traffic Updated
Sensor [A]: Atmospheric - 82.8 - - 57.0 9.3 / SW - - 7/31/2015 1:12:02 PM
Sensor [0]: SR-3 NB Driving Dry - 113.0 86.0 - - - 1 / 9.9 7/31/2015 1:12:02 PM
14-SR 13 @ TR 37 Sheridan Rd (MM 32.6) (200013) Status Air Temp Sfc Temp Sub Temp Dew Temp Wind Precip Traffic Updated
Sensor [A]: Atmospheric - 82.4 - - 60.8 5.6 / W - - 7/31/2015 1:12:04 PM
Sensor [0]: SR13 Eastbound Dry - 120.2 - - - - - 7/31/2015 1:12:04 PM
Sensor [1]: SR13 Westbound Dry - 120.2 - - - - - 7/31/2015 1:12:04 PM
15-US35 @ SR62 (200014) Status Air Temp Sfc Temp Sub Temp Dew Temp Wind Precip Traffic Updated
Sensor [A]: Atmospheric - 79.2 - - 66.2 8.7 / W - - 7/31/2015 1:12:45 PM
Sensor [1]: US35 WB Driving Dry - 124.7 - - - - - 7/31/2015 1:12:45 PM
Sensor [2]: SR62 NB Bridgedeck Dry - 120.2 - - - - - 7/31/2015 1:12:45 PM
16-SR-752 @ 1.3 Pickaway County (200015) Status Air Temp Sfc Temp Sub Temp Dew Temp Wind Precip Traffic Updated
Sensor [A]: Atmospheric - 84.6 - - 63.3 5.0 / W - - 7/31/2015 1:10:32 PM
17-US23 @ E. Fairground Road Overpass (200016) Status Air Temp Sfc Temp Sub Temp Dew Temp Wind Precip Traffic Updated
Sensor [A]: Atmospheric - 81.0 - - 60.3 8.1 / N - - 7/31/2015 1:10:15 PM
Sensor [0]: US23 NorthBound Passing Approach No Report - - - - - - - 7/31/2015 1:10:15 PM
Sensor [1]: US23 SouthBound Passing Bridgedeck No Report - - - - - - 34 / 57.2 7/31/2015 1:10:15 PM
18-US33 @ SR739 (200017) Status Air Temp Sfc Temp Sub Temp Dew Temp Wind Precip Traffic Updated
Sensor [A]: Atmospheric - 81.9 - - 59.9 8.7 / N - - 7/31/2015 1:10:46 PM
Sensor [0]: US33 WB Driving Dry - 114.8 84.2 - - - - 7/31/2015 1:10:46 PM
Sensor [1]: SR739 NB Bridgedeck Dry - 109.4 - - - - - 7/31/2015 1:10:46 PM
Sensor [2]: US33 EB Driving Shade Dry - 78.8 - - - - - 7/31/2015 1:10:46 PM
19-US 68 near Clark Co. Line (MM 0.7) (200018) Status Air Temp Sfc Temp Sub Temp Dew Temp Wind Precip Traffic Updated
Sensor [A]: Atmospheric - 81.5 - - 65.1 7.5 / NW - - 7/31/2015 1:14:58 PM
Sensor [0]: US68 SB Driving Lane Dry - 112.6 94.3 - - - - 7/31/2015 1:14:58 PM
Sensor [1]: US68 NB Driving Lane Dry - 112.3 - - - - - 7/31/2015 1:14:58 PM
Sensor [2]: US68 NB Driving Lane Bridgedeck Dry - 112.3 - - - - - 7/31/2015 1:14:58 PM
20-SR 502 @ CR 30 Palestine-Union City Rd (MM 3.3) (200019) Status Air Temp Sfc Temp Sub Temp Dew Temp Wind Precip Traffic Updated
Sensor [A]: Atmospheric - 81.9 - - 59.9 7.5 / SE - - 7/31/2015 1:12:22 PM
Sensor [0]: SR502 EB Lane Dry - 120.2 89.6 - - - 0 / 9.9 7/31/2015 1:12:22 PM
21-US33 @ SR540 (200020) Status Air Temp Sfc Temp Sub Temp Dew Temp Wind Precip Traffic Updated
Sensor [A]: Atmospheric - 81.0 - - 57.6 7.5 / SW - - 7/31/2015 12:21:06 PM
Sensor [0]: US-33 East Bound Driving Lane Dry - 116.6 86.0 - - - 3 / 55.9 7/31/2015 12:21:06 PM
22-SR 29 @ Hickory Branch Creek (MM 1.6) (200021) Status Air Temp Sfc Temp Sub Temp Dew Temp Wind Precip Traffic Updated
Sensor [A]: Atmospheric - 83.1 - - 62.6 8.7 / W - - 7/31/2015 1:10:48 PM
Sensor [0]: SR29 EB Lane Dry - 114.8 85.8 - - - 0 / 5.0 7/31/2015 1:10:48 PM
Sensor [1]: SR 29 WB Lane Dry - 115.0 - - - - 1 / 5.0 7/31/2015 1:10:48 PM
23-SR41 @ SR136 Adams County (200022) Status Air Temp Sfc Temp Sub Temp Dew Temp Wind Precip Traffic Updated
Sensor [A]: Atmospheric - 82.6 - - 61.0 6.8 / SW - - 7/31/2015 1:13:01 PM
Sensor [0]: SR136 NB Lane Dry - 133.7 85.1 - - - - 7/31/2015 1:13:01 PM
Sensor [1]: SR136 SB Lane Dry - 136.4 - - - - - 7/31/2015 1:13:01 PM
24-US68@SR125 (200023) Status Air Temp Sfc Temp Sub Temp Dew Temp Wind Precip Traffic Updated
Sensor [A]: Atmospheric - 83.7 - - 62.8 3.1 / E - - 7/31/2015 1:10:40 PM
Sensor [0]: NB US68 Dry - 123.8 - - - - - 7/31/2015 1:10:40 PM
Sensor [1]: SB US68 Dry - 116.6 - - - - - 7/31/2015 1:10:40 PM
25-SR73 South of TR 409 (MM 4.2) (200024) Status Air Temp Sfc Temp Sub Temp Dew Temp Wind Precip Traffic Updated
Sensor [A]: Atmospheric - 81.9 - - 62.8 6.8 / NW - - 7/31/2015 1:12:40 PM
26-SR 32 @ TR 255 Rice Road (MM 14.6) (200025) Status Air Temp Sfc Temp Sub Temp Dew Temp Wind Precip Traffic Updated
Sensor [A]: Atmospheric - 83.5 - - 63.5 5.6 / W - - 7/31/2015 1:12:41 PM
Sensor [0]: US 35 WB Driving Lane Dry - 124.7 88.7 - - - 32 / 60.3 7/31/2015 1:12:41 PM
Sensor [1]: US 35 EB Driving Lane Dry - 124.7 - - - - 28 / 57.8 7/31/2015 1:12:41 PM
Sensor [2]: SR32 Eastbound Driving Lane Bridgedeck Dry - 130.1 - - - - 20 / 59.0 7/31/2015 1:12:41 PM
Sensor [3]: SR32 Westbound Passing Lane Approach Dry - 124.7 - - - - 0 / 65.2 7/31/2015 1:12:41 PM
27-US52 @ Ice Creek (200026) Status Air Temp Sfc Temp Sub Temp Dew Temp Wind Precip Traffic Updated
Sensor [A]: Atmospheric - 86.5 - - 60.6 1.9 / SW - - 7/31/2015 1:11:57 PM
Sensor [0]: SR52 EB Driving Approach Dry - 111.2 87.8 - - - 0 / 9.9 7/31/2015 1:11:57 PM
Sensor [1]: SR52 WB Driving Bridgedeck Dry - 107.6 - - - - 0 / 9.9 7/31/2015 1:11:57 PM
28-US23 @ SLM 6.5 (200027) Status Air Temp Sfc Temp Sub Temp Dew Temp Wind Precip Traffic Updated
Sensor [A]: Atmospheric - 85.5 - - 65.5 3.1 / W - - 7/31/2015 1:09:21 PM
Sensor [0]: US23 NB Driving No Report - - - - - - - 7/31/2015 1:09:21 PM
Sensor [1]: US23 SB Driving No Report - - - - - - - 7/31/2015 1:09:21 PM
29-US 35 @Ross County Garage (MM 16.8) (200028) Status Air Temp Sfc Temp Sub Temp Dew Temp Wind Precip Traffic Updated
Sensor [A]: Atmospheric - 83.8 - - 64.6 3.7 / SW - - 7/31/2015 1:12:35 PM
Sensor [0]: US35 EB Driving Dry - 109.2 84.4 - - - 35 / 62.8 7/31/2015 1:12:35 PM
Sensor [1]: US35 WB Driving Dry - 114.8 - - - - 0 / 47.2 7/31/2015 1:12:35 PM
30-US 23 @Scioto County Garage (MM 9.7) (200029) Status Air Temp Sfc Temp Sub Temp Dew Temp Wind Precip Traffic Updated
Sensor [A]: Atmospheric - 85.5 - - 61.5 3.7 / SW - - 7/31/2015 1:11:29 PM
Sensor [0]: US23 NB Driving Dry - 120.2 - - - - 0 / 9.9 7/31/2015 1:11:29 PM
Sensor [1]: US23 SB Driving Dry - 114.8 87.8 - - - 0 / 9.9 7/31/2015 1:11:29 PM
31-USR 50 MM 17.68 (200030) Status Air Temp Sfc Temp Sub Temp Dew Temp Wind Precip Traffic Updated
Sensor [A]: Atmospheric - 84.7 - - 56.1 3.1 / E - - 7/31/2015 1:10:49 PM
Sensor [0]: US50 EB Driving Dry - 109.4 - - - - - 7/31/2015 1:10:49 PM
32-USR 35 @ SR 160 (200031) Status Air Temp Sfc Temp Sub Temp Dew Temp Wind Precip Traffic Updated
Sensor [A]: Atmospheric - 84.9 - - 61.2 5.6 / W - - 7/31/2015 1:10:50 PM
Sensor [1]: SR35 SB Driving Dry - 114.8 - - - - - 7/31/2015 1:10:50 PM
33-US33@mm9.2 (200032) Status Air Temp Sfc Temp Sub Temp Dew Temp Wind Precip Traffic Updated
Sensor [A]: Atmospheric - 84.9 - - 61.2 6.8 / SW - - 7/31/2015 1:12:06 PM
Sensor [0]: US33 EB Driving Dry - 123.8 - - - - - 7/31/2015 1:12:06 PM
Sensor [1]: US33 EB Driving Bridgedeck Dry - 111.2 - - - - - 7/31/2015 1:12:06 PM
34-US33 @ OH7 (200033) Status Air Temp Sfc Temp Sub Temp Dew Temp Wind Precip Traffic Updated
Sensor [A]: Atmospheric - 85.5 - - 58.8 4.3 / W - - 7/31/2015 1:12:52 PM
Sensor [0]: US-33 EB Driving Departure Dry - 139.1 98.6 - - - - 7/31/2015 1:12:52 PM
Sensor [1]: US-33 WB Driving Approach Dry - 131.9 - - - - - 7/31/2015 1:12:52 PM
Sensor [2]: US-33 EB Driving Bridgedeck Dry - 114.8 - - - - - 7/31/2015 1:12:52 PM
35-SR7 @ SLM12.7 (200034) Status Air Temp Sfc Temp Sub Temp Dew Temp Wind Precip Traffic Updated
Sensor [A]: Atmospheric - 85.8 - - 58.6 3.1 / N - - 7/31/2015 1:12:51 PM
Sensor [0]: SR7 NB Driving Lane Dry - 134.6 91.4 - - - - 7/31/2015 1:12:51 PM
Sensor [1]: SR7 SB Driving Lane Dry - 129.2 - - - - - 7/31/2015 1:12:51 PM
36-SR60 @ Monestary Rd (200035) Status Air Temp Sfc Temp Sub Temp Dew Temp Wind Precip Traffic Updated
Sensor [A]: Atmospheric - 85.6 - - 54.1 8.1 / W - - 7/31/2015 1:12:49 PM
Sensor [0]: SR60 EB Lane Dry - 137.3 91.4 - - - - 7/31/2015 1:12:49 PM
Sensor [1]: SR60 WB Lane Dry - 136.4 - - - - - 7/31/2015 1:12:49 PM
37-SR32@SR160 (200036) Status Air Temp Sfc Temp Sub Temp Dew Temp Wind Precip Traffic Updated
Sensor [A]: Atmospheric - 85.8 - - 59.7 2.5 / S - - 7/31/2015 1:12:09 PM
Sensor [0]: SR32 EB Driving Dry - 114.8 - - - - - 7/31/2015 1:12:09 PM
Sensor [1]: SR32 WB Driving Bridgedeck Dry - 120.2 - - - - - 7/31/2015 1:12:09 PM
38-SR43@SR9 (200037) Status Air Temp Sfc Temp Sub Temp Dew Temp Wind Precip Traffic Updated
Sensor [A]: Atmospheric - 81.7 - - 58.8 6.2 / SW - - 7/31/2015 1:10:37 PM
Sensor [0]: SR43 NB Dry - 123.8 91.4 - - - - 7/31/2015 1:10:37 PM
Sensor [1]: SR9 SB Dry - 123.8 - - - - - 7/31/2015 1:10:37 PM
39-SR11@SR267 (200038) Status Air Temp Sfc Temp Sub Temp Dew Temp Wind Precip Traffic Updated
Sensor [A]: Atmospheric - 82.0 - - 55.0 3.1 / SW - - 7/31/2015 1:10:48 PM
Sensor [0]: SR11 NB Driving Dry - 113.0 86.0 - - - - 7/31/2015 1:10:48 PM
Sensor [1]: SR11 SB Driving Dry - 113.0 - - - - - 7/31/2015 1:10:48 PM
40-Clinton County Garage (200039) Status Air Temp Sfc Temp Sub Temp Dew Temp Wind Precip Traffic Updated
Sensor [A]: Atmospheric - 81.7 - - 61.9 6.2 / S - - 7/31/2015 1:12:47 PM
41- SR62@SR206 (200042) Status Air Temp Sfc Temp Sub Temp Dew Temp Wind Precip Traffic Updated
Sensor [A]: Atmospheric - 83.5 - - 61.7 5.6 / W - - 7/31/2015 1:10:22 PM
Sensor [0]: SR62 EB Dry - 129.2 - - - - 12 / 39.1 7/31/2015 1:10:22 PM
Sensor [1]: SR62 WB Dry - 127.4 - - - - 7 / 37.3 7/31/2015 1:10:22 PM
42- SR7@ SLM14.65 (200041) Status Air Temp Sfc Temp Sub Temp Dew Temp Wind Precip Traffic Updated
Sensor [A]: Atmospheric - 87.3 - - 56.7 1.2 / SE - - 7/31/2015 1:10:38 PM
Sensor [0]: SR7 Passing Dry - 141.8 - - - - - 7/31/2015 1:10:38 PM
51-IR 70 West of CR 320 (0.8 MM) (200050) Status Air Temp Sfc Temp Sub Temp Dew Temp Wind Precip Traffic Updated
Sensor [A]: Atmospheric - 81.5 - - 61.3 3.1 / N - - 7/31/2015 1:10:33 PM
Sensor [0]: IR70 EB Driving Dry - 111.2 84.2 - - - 56 / 62.1 7/31/2015 1:10:33 PM
Sensor [1]: IR70 WB Driving Dry - 105.8 - - - - 60 / 60.3 7/31/2015 1:10:33 PM
52-18 MM MOT/PRE (200051) Status Air Temp Sfc Temp Sub Temp Dew Temp Wind Precip Traffic Updated
Sensor [A]: Atmospheric - 82.2 - - 60.4 9.9 / W - - 7/31/2015 1:10:34 PM
Sensor [0]: IR70 WB Passing Dry - 122.0 - - - - 56 / 57.8 7/31/2015 1:10:34 PM
Sensor [1]: IR70 EB Driving Dry - 109.4 - - - - 0 / 62.1 7/31/2015 1:10:34 PM
Sensor [2]: IR70 WB Driving Dry - 109.4 84.2 - - - 26 / 62.8 7/31/2015 1:10:34 PM
53-CLA-70 @ I675 (200052) Status Air Temp Sfc Temp Sub Temp Dew Temp Wind Precip Traffic Updated
Sensor [A]: Atmospheric - 83.3 - - 59.2 8.7 / NW - - 7/31/2015 1:10:26 PM
Sensor [0]: I675 SB Passing Bridgedeck Dry - 118.4 - - - - 0 / 9.9 7/31/2015 1:10:26 PM
Sensor [1]: I675 SB Passing Departure Dry - 116.6 - - - - 0 / 9.9 7/31/2015 1:10:26 PM
54-IR70 MM 62 (200053) Status Air Temp Sfc Temp Sub Temp Dew Temp Wind Precip Traffic Updated
Sensor [A]: Atmospheric - 82.8 - - 61.3 7.5 / NW - - 7/31/2015 1:12:27 PM
Sensor [0]: I70 EB Driving Dry - 109.4 84.2 - - - 0 / 9.9 7/31/2015 1:12:27 PM
Sensor [1]: I70 WB Passing Dry - 111.2 - - - - 0 / 9.9 7/31/2015 1:12:27 PM
55-IR70 MM 142 (200054) Status Air Temp Sfc Temp Sub Temp Dew Temp Wind Precip Traffic Updated
Sensor [A]: Atmospheric - 83.1 - - 62.4 5.6 / W - - 7/31/2015 1:10:36 PM
Sensor [0]: IR70 EB Driving Dry - 116.6 84.2 - - - 48 / 64.0 7/31/2015 1:10:36 PM
Sensor [1]: IR70 WB Driving Dry - 116.6 - - - - 35 / 39.8 7/31/2015 1:10:36 PM
Sensor [2]: IR70 EB Passing Dry - 114.8 - - - - 25 / 44.1 7/31/2015 1:10:36 PM
Sensor [3]: IR70 WB Passing Dry - 118.4 - - - - 47 / 62.8 7/31/2015 1:10:36 PM
56-IR70 MM 169 (200055) Status Air Temp Sfc Temp Sub Temp Dew Temp Wind Precip Traffic Updated
Sensor [A]: Atmospheric - 84.6 - - 59.4 9.9 / W - - 7/31/2015 12:39:09 PM
Sensor [0]: IR70 EB Driving Dry - 105.8 84.2 - - - 4 / 18.0 7/31/2015 12:39:09 PM
Sensor [1]: IR70 WB Driving Dry - 84.2 - - - - 25 / 62.8 7/31/2015 12:39:09 PM
57-IR70 MM 198 (200056) Status Air Temp Sfc Temp Sub Temp Dew Temp Wind Precip Traffic Updated
Sensor [A]: Atmospheric - 83.8 - - 59.7 3.7 / SE - - 7/31/2015 1:10:44 PM
Sensor [0]: IR70 EB Driving Dry - 123.8 84.2 - - - 40 / 57.2 7/31/2015 1:10:44 PM
Sensor [1]: IR70 EB Passing Dry - 126.5 - - - - 1 / 26.7 7/31/2015 1:10:44 PM
Sensor [2]: IR70 WB Passing Dry - 114.8 - - - - 20 / 57.8 7/31/2015 1:10:44 PM
Sensor [3]: IR70 WB Driving (East) Dry - 111.2 - - - - 39 / 57.8 7/31/2015 1:10:44 PM
Sensor [4]: IR70 WB Driving (West) Dry - 109.4 - - - - - 7/31/2015 1:10:44 PM
58-IR470 MM 6 (200057) Status Air Temp Sfc Temp Sub Temp Dew Temp Wind Precip Traffic Updated
Sensor [A]: Atmospheric - 85.8 - - 59.2 3.7 / S - - 7/31/2015 1:12:48 PM
Sensor [0]: IR470 EB Driving Dry - 123.8 93.2 - - - 30 / 44.1 7/31/2015 1:12:48 PM
Sensor [1]: IR470 WB Driving Dry - 122.0 - - - - 10 / 64.0 7/31/2015 1:12:48 PM
59- US 127 @ SR 744 (200058) Status Air Temp Sfc Temp Sub Temp Dew Temp Wind Precip Traffic Updated
Sensor [A]: Atmospheric - 82.0 - - 61.9 4.3 / W - - 7/31/2015 1:11:08 PM
Sensor [0]: US127 NB Bridgedeck Dry - 115.5 - - - - 55 / 64.0 7/31/2015 1:11:08 PM
Sensor [1]: US127 SB Bridgedeck Dry - 115.0 - - - - 31 / 70.8 7/31/2015 1:11:08 PM
60-IR71 MM 62 (200059) Status Air Temp Sfc Temp Sub Temp Dew Temp Wind Precip Traffic Updated
Sensor [A]: Atmospheric - 82.4 - - 59.9 11.2 / SW - - 7/31/2015 1:11:45 PM
Sensor [0]: IR71 SB Center Dry - 129.2 - - - - 17 / 65.2 7/31/2015 1:11:45 PM
Sensor [1]: IR71 NB Driving Dry - 109.4 82.4 - - - 0 / 9.9 7/31/2015 1:11:45 PM
Sensor [2]: IR71 NB Passing Bridgedeck Dry - 113.0 - - - - 0 / 9.9 7/31/2015 1:11:45 PM
61-IR71 MM 79 (200060) Status Air Temp Sfc Temp Sub Temp Dew Temp Wind Precip Traffic Updated
Sensor [A]: Atmospheric - 84.7 - - 59.5 6.8 / N - - 7/31/2015 1:11:48 PM
Sensor [0]: IR71 NB Driving Bridgedeck Dry - 107.6 96.8 - - - 0 / 9.9 7/31/2015 1:11:48 PM
Sensor [1]: IR71 NB Driving Dry - 107.6 - - - - 0 / 9.9 7/31/2015 1:11:48 PM
62- Cemetary Rd. Over I-270 (200061) Status Air Temp Sfc Temp Sub Temp Dew Temp Wind Precip Traffic Updated
Sensor [A]: Atmospheric - 83.7 - - 61.3 7.5 / NW - - 7/31/2015 1:10:18 PM
63-IR 71 @ Morrow/Delaware County Line (200062) Status Air Temp Sfc Temp Sub Temp Dew Temp Wind Precip Traffic Updated
Sensor [A]: Atmospheric - 60.3 - - 47.3 6.2 / E - - 4/9/2013 9:12:09 AM
64-I71 MM 158 (200063) Status Air Temp Sfc Temp Sub Temp Dew Temp Wind Precip Traffic Updated
Sensor [A]: Atmospheric - 83.5 - - 58.5 3.7 / SW - - 7/31/2015 1:12:11 PM
Sensor [0]: IR71 NB Driving Dry - 109.4 84.2 - - - 0 / 9.9 7/31/2015 1:12:11 PM
Sensor [1]: IR71 SB Driving Trace Moisture - 111.2 - - - - 0 / 9.9 7/31/2015 1:12:11 PM
65-IR71 MM 174 (200064) Status Air Temp Sfc Temp Sub Temp Dew Temp Wind Precip Traffic Updated
Sensor [A]: Atmospheric - 79.7 - - 57.7 5.6 / W - - 7/31/2015 1:12:15 PM
Sensor [0]: IR71 NB Driving Dry - 113.0 108.5 - - - 40 / 60.3 7/31/2015 1:12:15 PM
Sensor [1]: IR71 SB Center Dry - 107.6 - - - - 0 / 9.9 7/31/2015 1:12:15 PM
66-IR71 MM 195.55 (200065) Status Air Temp Sfc Temp Sub Temp Dew Temp Wind Precip Traffic Updated
Sensor [A]: Atmospheric - 82.6 - - 55.0 9.9 / SW - - 7/31/2015 1:10:19 PM
Sensor [0]: IR71 North Bound Driving Lane Dry - 109.4 82.4 - - - 4 / 55.3 7/31/2015 1:10:19 PM
Sensor [1]: IR71 South Bound Passing Lane Dry - 116.6 - - - - 0 / 54.1 7/31/2015 1:10:19 PM
Sensor [2]: IR71 South Bound Driving Lane Trace Moisture - 109.4 - - - - 0 / 21.7 7/31/2015 1:10:19 PM
67-IR71 MM 209 (200066) Status Air Temp Sfc Temp Sub Temp Dew Temp Wind Precip Traffic Updated
Sensor [A]: Atmospheric - 83.8 - - 55.6 4.3 / NW - - 7/31/2015 1:12:17 PM
Sensor [0]: IR71 NB Driving Dry - 111.2 84.2 - - - 0 / 9.9 7/31/2015 1:12:17 PM
Sensor [1]: IR71 SB Driving Bridgedeck Dry - 105.8 - - - - 0 / 9.9 7/31/2015 1:12:17 PM
68-IR271 @ IR77 (200067) Status Air Temp Sfc Temp Sub Temp Dew Temp Wind Precip Traffic Updated
Sensor [A]: Atmospheric - 84.2 - - 51.8 7.5 / W - - 7/31/2015 1:12:19 PM
Sensor [0]: I271 SB Passing Bridgedeck Dry - 109.4 - - - - 0 / 9.9 7/31/2015 1:12:19 PM
69-IR275 MM 21 (200068) Status Air Temp Sfc Temp Sub Temp Dew Temp Wind Precip Traffic Updated
Sensor [A]: Atmospheric - 86.5 - - 59.7 1.9 / N - - 7/31/2015 1:11:49 PM
Sensor [0]: IR275 NB Driving Dry - 113.0 84.2 - - - 0 / 9.9 7/31/2015 1:11:49 PM
Sensor [1]: IR275 SB Driving Trace Moisture - 113.0 - - - - 1 / 9.9 7/31/2015 1:11:49 PM
70-IR275 HAM/CLER (200069) Status Air Temp Sfc Temp Sub Temp Dew Temp Wind Precip Traffic Updated
Sensor [A]: Atmospheric - 85.8 - - 60.3 5.0 / NE - - 7/31/2015 1:10:08 PM
Sensor [0]: I275 EB Driving Dry - 111.2 84.2 - - - 0 / 62.1 7/31/2015 1:10:08 PM
Sensor [1]: I275 WB Driving Dry - 111.2 - - - - 0 / 60.9 7/31/2015 1:10:08 PM
71-I675 MONT/GRE (200070) Status Air Temp Sfc Temp Sub Temp Dew Temp Wind Precip Traffic Updated
Sensor [A]: Atmospheric - 83.8 - - 56.8 4.3 / S - - 7/31/2015 1:01:10 PM
Sensor [0]: I675 NB Driving Dry - 111.2 84.2 - - - 46 / 60.9 7/31/2015 1:01:10 PM
Sensor [1]: I675 SB Driving Dry - 113.0 - - - - 97 / 62.8 7/31/2015 1:01:10 PM
72-18 MM BUT/HAM (200071) Status Air Temp Sfc Temp Sub Temp Dew Temp Wind Precip Traffic Updated
Sensor [A]: Atmospheric - 86.2 - - 58.8 4.3 / W - - 7/31/2015 1:10:47 PM
Sensor [0]: IR75 NB Passing Dry - 111.2 86.0 - - - - 7/31/2015 1:10:47 PM
Sensor [1]: IR75 SB Driving Dry - 111.2 - - - - - 7/31/2015 1:10:47 PM
73-I75mm27.5 SB (200072) Status Air Temp Sfc Temp Sub Temp Dew Temp Wind Precip Traffic Updated
Sensor [A]: Atmospheric - 84.6 - - 60.3 3.1 / W - - 7/31/2015 1:10:42 PM
Sensor [0]: IR75 NB Driving Dry - 113.0 - - - - - 7/31/2015 1:10:42 PM
Sensor [1]: IR75 SB Driving Dry - 114.8 - - - - - 7/31/2015 1:10:42 PM
74-IR75 MM 40 (200073) Status Air Temp Sfc Temp Sub Temp Dew Temp Wind Precip Traffic Updated
Sensor [A]: Atmospheric - 83.3 - - 61.0 1.2 / N - - 7/31/2015 1:11:08 PM
Sensor [0]: IR75 NB Driving Dry - 109.4 84.2 - - - 26 / 14.3 7/31/2015 1:11:08 PM
Sensor [1]: IR75 SB Driving Trace Moisture - 111.2 - - - - 9 / 19.3 7/31/2015 1:11:08 PM
75-SR 16 @ CR 34 W. Carlisle Rd (MM 4.3) (200074) Status Air Temp Sfc Temp Sub Temp Dew Temp Wind Precip Traffic Updated
Sensor [A]: Atmospheric - 84.9 - - 61.3 9.9 / W - - 7/31/2015 1:10:41 PM
Sensor [0]: SR16 EB Driving Bridgedeck Dry - 116.6 95.0 - - - - 7/31/2015 1:10:41 PM
76-IR75 MM 84 (200075) Status Air Temp Sfc Temp Sub Temp Dew Temp Wind Precip Traffic Updated
Sensor [A]: Atmospheric - 82.9 - - 62.6 3.7 / S - - 7/31/2015 1:12:13 PM
77-IR75 MM 105 (200076) Status Air Temp Sfc Temp Sub Temp Dew Temp Wind Precip Traffic Updated
Sensor [A]: Atmospheric - 82.6 - - 58.5 8.1 / SW - - 7/31/2015 1:11:30 PM
Sensor [0]: IR75 NB Driving Dry - 107.6 71.4 - - - 0 / 9.9 7/31/2015 1:11:30 PM
Sensor [1]: IR75 SB Driving Dry - 82.4 - - - - 0 / 9.9 7/31/2015 1:11:30 PM
78-IR75 MM 119 (200077) Status Air Temp Sfc Temp Sub Temp Dew Temp Wind Precip Traffic Updated
Sensor [A]: Atmospheric - 83.8 - - 58.5 5.0 / SW - - 7/31/2015 1:11:33 PM
Sensor [0]: IR75 NB Driving Wet - 111.2 72.1 - - - 1 / 9.9 7/31/2015 1:11:33 PM
Sensor [1]: IR75 SB Driving Wet - 109.4 - - - - 0 / 9.9 7/31/2015 1:11:33 PM
79-IR 75 @ Allen/Hancock County Line (200078) Status Air Temp Sfc Temp Sub Temp Dew Temp Wind Precip Traffic Updated
Sensor [A]: Atmospheric - 85.3 - - 58.5 1.2 / E - - 7/31/2015 1:12:35 PM
Sensor [0]: IR75 NB Driving Dry - 113.0 86.0 - - - 0 / 9.9 7/31/2015 1:12:35 PM
Sensor [1]: IR75 SB Driving Dry - 113.0 - - - - 0 / 9.9 7/31/2015 1:12:35 PM
80-IR 77@ SR 7 Interchange (200079) Status Air Temp Sfc Temp Sub Temp Dew Temp Wind Precip Traffic Updated
Sensor [A]: Atmospheric - 86.0 - - 60.3 3.1 / W - - 7/31/2015 1:11:30 PM
Sensor [0]: I77 SB Driving Lane Dry - 105.8 - - - - - 7/31/2015 1:11:30 PM
81-IR77 MM 16 (200080) Status Air Temp Sfc Temp Sub Temp Dew Temp Wind Precip Traffic Updated
Sensor [A]: Atmospheric - 84.6 - - 59.2 1.2 / SE - - 7/31/2015 1:16:48 PM
Sensor [0]: IR77 SB Driving Dry - 107.6 - - - - - 7/31/2015 1:16:48 PM
82-IR77 MM 36 (200081) Status Air Temp Sfc Temp Sub Temp Dew Temp Wind Precip Traffic Updated
Sensor [A]: Atmospheric - 85.3 - - 61.2 3.1 / SW - - 7/31/2015 1:11:17 PM
Sensor [0]: IR77 SB Driving Dry - - 83.1 - - - 27 / 64.0 7/31/2015 1:11:17 PM
Sensor [1]: IR77 NB Driving Dry - - - - - - 0 / 52.8 7/31/2015 1:11:17 PM
83-IR77 MM 59 (200082) Status Air Temp Sfc Temp Sub Temp Dew Temp Wind Precip Traffic Updated
Sensor [A]: Atmospheric - 84.9 - - 56.8 4.3 / W - - 7/31/2015 1:12:54 PM
Sensor [0]: IR77 NB Driving Dry - 116.6 86.0 - - - 0 / 5.0 7/31/2015 1:12:54 PM
Sensor [1]: IR77 SB Driving Dry - 118.4 - - - - 0 / 5.0 7/31/2015 1:12:54 PM
84-IR 77 @ Stark/Tuscarawas County Line (200083) Status Air Temp Sfc Temp Sub Temp Dew Temp Wind Precip Traffic Updated
Sensor [A]: Atmospheric - 81.7 - - 59.7 6.2 / W - - 7/31/2015 1:12:48 PM
Sensor [0]: IR77 NB Passing Lane Dry - 112.1 85.6 - - - 0 / 52.8 7/31/2015 1:12:48 PM
Sensor [1]: IR77 SB Passing Lane Dry - 106.0 - - - - 0 / 6.8 7/31/2015 1:12:48 PM
85-SR2 @ Huron River (200084) Status Air Temp Sfc Temp Sub Temp Dew Temp Wind Precip Traffic Updated
Sensor [A]: Atmospheric - 83.3 - - 59.4 7.5 / S - - 7/31/2015 1:13:03 PM
Sensor [0]: SR2 WB Driving Appraoch Dry - 109.4 84.2 - - - 8959 / 154.1 7/31/2015 1:13:03 PM
Sensor [1]: SR2 EB Driving Departure Dry - 114.8 - - - - 1 / 5.0 7/31/2015 1:13:03 PM
86-IR90 @ SR57 (200085) Status Air Temp Sfc Temp Sub Temp Dew Temp Wind Precip Traffic Updated
Sensor [A]: Atmospheric - 83.3 - - 58.3 3.7 / W - - 7/31/2015 1:10:52 PM
Sensor [0]: IR90 EB Driving Dry - 106.7 84.2 - - - 34 / 6.2 7/31/2015 1:10:52 PM
Sensor [1]: IR90 WB Driving Dry - 109.9 - - - - 0 / 5.0 7/31/2015 1:10:52 PM
87-IR90 ATB/LAKE (200086) Status Air Temp Sfc Temp Sub Temp Dew Temp Wind Precip Traffic Updated
Sensor [A]: Atmospheric - 83.3 - - 56.5 6.2 / NW - - 7/31/2015 1:13:04 PM
Sensor [0]: I90 EB Passing Dry - 109.4 84.2 - - - 92 / 62.1 7/31/2015 1:13:04 PM
Sensor [1]: I90 EB Driving Dry - 111.2 - - - - 2 / 5.0 7/31/2015 1:13:04 PM
Sensor [2]: I90 WB Passing Dry - 113.0 - - - - 52 / 59.0 7/31/2015 1:13:04 PM
88-IR90 @ SR11 (200087) Status Air Temp Sfc Temp Sub Temp Dew Temp Wind Precip Traffic Updated
Sensor [A]: Atmospheric - 81.9 - - 60.3 7.5 / W - - 7/31/2015 1:11:01 PM
Sensor [0]: IR90 EB Passing Dry - 115.3 82.9 - - - 0 / 158.4 7/31/2015 1:11:01 PM
Sensor [1]: IR90 WB Passing (Under Construction) Dry - 84.2 - - - - 31 / 65.2 4/28/2015 2:02:22 PM
89-IR90 @ PA Line (200088) Status Air Temp Sfc Temp Sub Temp Dew Temp Wind Precip Traffic Updated
Sensor [A]: Atmospheric - 80.4 - - 62.1 7.5 / W - - 7/31/2015 1:14:32 PM
Sensor [0]: IR90 EB Driving Bridgedeck Dry - 104.7 110.5 - - - - 7/31/2015 1:14:32 PM
Sensor [1]: IR90 EB Passing Dry - 109.9 - - - - - 7/31/2015 1:14:32 PM
Sensor [2]: IR90 WB Passing Bridgedeck Dry - 109.6 - - - - - 7/31/2015 1:14:32 PM
Sensor [3]: IR90 WB Driving Dry - 106.9 - - - - - 7/31/2015 1:14:32 PM
90-IR80 @ PA Line (200089) Status Air Temp Sfc Temp Sub Temp Dew Temp Wind Precip Traffic Updated
Sensor [A]: Atmospheric - 84.4 - - 61.0 2.5 / SW - - 7/31/2015 1:13:30 PM
Sensor [0]: IR80 EB Driving Dry - 110.3 81.1 - - - 21 / 49.1 7/31/2015 1:13:30 PM
Sensor [1]: IR80 WB Driving Dry - 114.4 - - - - 0 / 47.8 7/31/2015 1:13:30 PM
91-IR76 MAH/POR (200090) Status Air Temp Sfc Temp Sub Temp Dew Temp Wind Precip Traffic Updated
Sensor [A]: Atmospheric - 83.1 - - 50.4 - - - 7/31/2015 1:13:06 PM
Sensor [0]: IR76 EB Passing Dry - 82.4 84.2 - - - 6 / 9.9 7/31/2015 1:13:06 PM
Sensor [1]: IR76 WB Passing Bridgedeck Dry - 105.8 - - - - 22 / 55.9 7/31/2015 1:13:06 PM
Sensor [2]: IR76 EB Driving Dry - 89.6 - - - - 17 / 64.0 7/31/2015 1:13:06 PM
Sensor [3]: IR76 WB Driving Bridgedeck Dry - 107.6 - - - - 43 / 64.0 7/31/2015 1:13:06 PM
92-IR76 POR/SUM (200091) Status Air Temp Sfc Temp Sub Temp Dew Temp Wind Precip Traffic Updated
Sensor [A]: Atmospheric - 83.7 - - 52.2 8.7 / N - - 7/31/2015 1:10:20 PM
Sensor [1]: IR76 EB Driving Dry - 104.0 - - - - 43 / 5.0 7/31/2015 1:10:20 PM
Sensor [2]: IR76 WB Driving Dry - 109.4 102.2 - - - 0 / 64.0 7/31/2015 1:10:20 PM
94-SR11 ATB/TRUM (200093) Status Air Temp Sfc Temp Sub Temp Dew Temp Wind Precip Traffic Updated
Sensor [A]: Atmospheric - 82.9 - - 59.7 1.2 / W - - 7/31/2015 1:12:48 PM
Sensor [0]: SR11 NB Driving Dry - 122.9 85.8 - - - 22 / 64.0 7/31/2015 1:12:48 PM
Sensor [1]: SR11 SB Driving Dry - 114.6 - - - - 2 / 9.9 7/31/2015 1:12:48 PM
95-SR11 MAH/COL (200094) Status Air Temp Sfc Temp Sub Temp Dew Temp Wind Precip Traffic Updated
Sensor [A]: Atmospheric - 80.2 - - 59.5 8.1 / SW - - 7/31/2015 1:09:39 PM
Sensor [0]: SR11 NB Driving Dry - 111.0 86.0 - - - 0 / 64.0 7/31/2015 1:09:39 PM
Sensor [1]: SR11 SB Driving Dry - 113.4 - - - - 0 / 9.9 7/31/2015 1:09:39 PM
96-US 33 @ SR 78/SR 691 (200095) Status Air Temp Sfc Temp Sub Temp Dew Temp Wind Precip Traffic Updated
Sensor [A]: Atmospheric - 85.1 - - 59.4 2.5 / S - - 7/31/2015 1:10:52 PM
Sensor [0]: US33 EB Driving Bridgedeck Dry - 112.8 109.2 - - - - 7/31/2015 1:10:52 PM
97-SR315 @ I270 (200096) Status Air Temp Sfc Temp Sub Temp Dew Temp Wind Precip Traffic Updated
Sensor [A]: Atmospheric - 85.3 - - 60.8 6.8 / NW - - 7/31/2015 1:10:06 PM
Sensor [0]: I270 WB Passing Dry - 109.4 84.2 - - - 4 / 26.7 7/31/2015 1:10:06 PM
Sensor [1]: IR Ice Detection Sensor Dry - - - - - - 0 / 42.3 7/31/2015 1:10:06 PM
98-I270 SB Ramp to SR161 EB (200097) Status Air Temp Sfc Temp Sub Temp Dew Temp Wind Precip Traffic Updated
Sensor [A]: Atmospheric - 83.1 - - 59.7 11.8 / N - - 7/31/2015 1:10:27 PM
99-US30 @ Dalton (200098) Status Air Temp Sfc Temp Sub Temp Dew Temp Wind Precip Traffic Updated
Sensor [A]: Atmospheric - 84.7 - - 60.4 1.2 / NW - - 7/31/2015 1:11:01 PM
Sensor [0]: US30 EB Driving Dry - 114.6 90.7 - - - 0 / 50.3 7/31/2015 1:11:01 PM
Sensor [1]: US30 WB Driving Bridgedeck Dry - 113.2 - - - - 11 / 57.2 7/31/2015 1:11:01 PM
100-SR225 @ Berlin Reservoir (200099) Status Air Temp Sfc Temp Sub Temp Dew Temp Wind Precip Traffic Updated
Sensor [A]: Atmospheric - 82.9 - - 59.5 5.6 / W - - 7/31/2015 1:13:30 PM
Sensor [0]: SR225 NB Lane Dry - 101.3 83.7 - - - 0 / 65.2 7/31/2015 1:13:30 PM
Sensor [1]: SR225 SB Bridgedeck Dry - 111.2 - - - - 4 / 9.9 7/31/2015 1:13:30 PM
101-SR45 @ Rock Creek (200100) Status Air Temp Sfc Temp Sub Temp Dew Temp Wind Precip Traffic Updated
Sensor [A]: Atmospheric - 83.8 - - 57.6 0.6 / E - - 7/31/2015 1:13:07 PM
Sensor [0]: SR45 NB Bridgedeck Dry - 104.0 86.0 - - - 12 / 34.8 7/31/2015 1:13:07 PM
Sensor [1]: SR45 SB Dry - 105.8 - - - - 0 / 39.1 7/31/2015 1:13:07 PM
102-SR 167 / SR 7 @ East Branch Ashtabula River (MM 11.0) (200101) Status Air Temp Sfc Temp Sub Temp Dew Temp Wind Precip Traffic Updated
Sensor [A]: Atmospheric - 81.7 - - 60.6 3.7 / W - - 7/31/2015 1:12:14 PM
Sensor [0]: SR7 NB Dry - 107.2 - - - - 6 / 42.3 7/31/2015 1:12:14 PM
Sensor [1]: SR7 SB Bridgedeck Dry - 109.4 - - - - 0 / 5.0 7/31/2015 1:12:14 PM
103- I-70 @ SR-79 (200102) Status Air Temp Sfc Temp Sub Temp Dew Temp Wind Precip Traffic Updated
Sensor [A]: Atmospheric - 84.0 - - 63.3 9.9 / SW - - 7/31/2015 1:10:49 PM
Sensor [1]: SR79 SB Bridgedeck Dry - 114.8 - - - - 36 / 50.3 7/31/2015 1:10:49 PM
Sensor [2]: IR70 EB Driving Dry - 113.0 - - - - 32 / 60.3 7/31/2015 1:10:49 PM
104-SR 3 KNOX/Ashland (200103) Status Air Temp Sfc Temp Sub Temp Dew Temp Wind Precip Traffic Updated
Sensor [A]: Atmospheric - 81.3 - - 60.1 8.7 / W - - 7/31/2015 1:12:24 PM
Sensor [0]: SR3 SB Dry - 109.6 86.2 - - - 2 / 52.2 7/31/2015 1:12:24 PM
105-IR70/IR75 (200104) Status Air Temp Sfc Temp Sub Temp Dew Temp Wind Precip Traffic Updated
Sensor [A]: Atmospheric - 82.6 - - 69.8 8.7 / SW - - 7/31/2015 1:10:48 PM
Sensor [0]: IR75 NB Driving Dry - 114.8 - - - - 12 / 60.3 7/31/2015 1:10:48 PM
Sensor [1]: IR70 WB Driving Bridgedeck Dry - 109.4 - - - - 46 / 65.2 7/31/2015 1:10:48 PM
106-SR39 @ Sugarcreek (200105) Status Air Temp Sfc Temp Sub Temp Dew Temp Wind Precip Traffic Updated
Sensor [A]: Atmospheric - 82.6 - - 64.0 9.9 / W - - 7/31/2015 1:10:53 PM
Sensor [0]: SR39 EB Lane Dry - 113.9 - - - - 6 / 51.0 7/31/2015 1:10:53 PM
Sensor [1]: SR39 WB Lane Dry - 113.4 85.8 - - - 131 / 47.8 7/31/2015 1:10:53 PM
107-US250 @ Ulrichsville (200106) Status Air Temp Sfc Temp Sub Temp Dew Temp Wind Precip Traffic Updated
Sensor [A]: Atmospheric - 83.8 - - 59.7 6.2 / W - - 7/31/2015 1:12:56 PM
Sensor [0]: US250 EB Driving Dry - 120.2 89.6 - - - 0 / 5.0 7/31/2015 1:12:56 PM
Sensor [1]: US250 WB Driving Dry - 116.6 - - - - 0 / 5.0 7/31/2015 1:12:56 PM
108-SR 183 @ Minerva / Linden Road NW (MM 7.9) (200107) Status Air Temp Sfc Temp Sub Temp Dew Temp Wind Precip Traffic Updated
Sensor [A]: Atmospheric - 82.8 - - 60.4 5.0 / W - - 7/31/2015 1:12:29 PM
Sensor [0]: SR183 NB Bridgedeck Dry - 110.8 86.7 - - - 9 / 70.8 7/31/2015 1:12:29 PM
Sensor [1]: SR183 SB Dry - 116.1 - - - - 4 / 9.9 7/31/2015 1:12:29 PM
109-SR 22 @ East of SR 151 at the RR overpass (MM 24.6) (200108) Status Air Temp Sfc Temp Sub Temp Dew Temp Wind Precip Traffic Updated
Sensor [A]: Atmospheric - 83.5 - - 59.9 5.6 / E - - 7/31/2015 1:13:00 PM
Sensor [0]: SR22E Driving Lane Dry - 130.1 88.7 - - - 19 / 67.1 7/31/2015 1:13:00 PM
Sensor [1]: SR22W Passing Lane Dry - 131.9 - - - - 2 / 73.9 7/31/2015 1:13:00 PM
110-SR7 @ SR213 (200109) Status Air Temp Sfc Temp Sub Temp Dew Temp Wind Precip Traffic Updated
Sensor [A]: Atmospheric - 84.7 - - 61.3 1.2 / SW - - 7/31/2015 1:11:57 PM
Sensor [0]: SR7 NB Driving Dry - 121.1 86.0 - - - 6 / 42.3 7/31/2015 1:11:57 PM
111-I70 MM 114 (200110) Status Air Temp Sfc Temp Sub Temp Dew Temp Wind Precip Traffic Updated
Sensor [A]: Atmospheric - 85.3 - - 57.7 5.6 / NE - - 7/31/2015 1:10:31 PM
Sensor [1]: IR70 WB Passing Bridgedeck Dry - 104.0 - - - - 71 / 75.8 7/31/2015 1:10:31 PM
112-USR 27 @ 21 MM (200111) Status Air Temp Sfc Temp Sub Temp Dew Temp Wind Precip Traffic Updated
Sensor [A]: Atmospheric - 83.5 - - 64.8 3.1 / NW - - 7/31/2015 1:11:51 PM
Sensor [0]: SR27 NB Lane Dry - 135.5 72.5 - - - 12 / 47.2 7/31/2015 1:11:51 PM
Sensor [1]: SR27 SB Lane Dry - 120.2 - - - - 0 / 9.9 7/31/2015 1:11:51 PM
113-I-275 @ USR 52 (200112) Status Air Temp Sfc Temp Sub Temp Dew Temp Wind Precip Traffic Updated
Sensor [A]: Atmospheric - 88.0 - - 59.5 1.9 / E - - 7/31/2015 1:10:09 PM
Sensor [0]: I275 SB Driving Bridgedeck Dry - 133.7 86.0 - - - 28 / 60.3 7/31/2015 1:10:09 PM
Sensor [1]: I275 NB Driving Dry - 114.8 - - - - 35 / 62.8 7/31/2015 1:10:09 PM
114-IR71 @ US36 (38000) Status Air Temp Sfc Temp Sub Temp Dew Temp Wind Precip Traffic Updated
Sensor [A]: Atmospheric - 89.1 - - 54.0 8.1 / N - - 7/31/2015 1:10:48 PM
Sensor [0]: I71 SB Driving Dry - 122.9 - - - - - 7/31/2015 1:10:48 PM
115-IR71 @ Schrock Road (38001) Status Air Temp Sfc Temp Sub Temp Dew Temp Wind Precip Traffic Updated
Sensor [A]: Atmospheric - 84.6 - - 60.8 4.3 / SW - - 7/31/2015 1:10:49 PM
Sensor [0]: Schrock Rd Approach Dry - 123.3 - - - - - 7/31/2015 1:10:49 PM
Sensor [1]: Schrock Rd Bridgedeck Dry - 116.1 - - - - - 7/31/2015 1:10:49 PM
116-IR70W @ I270 (38004) Status Air Temp Sfc Temp Sub Temp Dew Temp Wind Precip Traffic Updated
Sensor [A]: Atmospheric - - - - - 9.9 / NW - - 7/31/2015 1:10:51 PM
Sensor [0]: I-70 EB Drive Error - - - - - - - 7/31/2015 1:10:51 PM
117-IR70 @ SR29 (38005) Status Air Temp Sfc Temp Sub Temp Dew Temp Wind Precip Traffic Updated
Sensor [A]: Atmospheric - 84.2 - - 47.1 9.9 / W - - 7/31/2015 1:10:52 PM
Sensor [2]: I70 WB Driving Dry - 113.2 - - - - - 7/31/2015 1:10:52 PM
118-IR70/IR71/SR315 (38006) Status Air Temp Sfc Temp Sub Temp Dew Temp Wind Precip Traffic Updated
Sensor [A]: Atmospheric - 87.4 - - 50.2 6.2 / W - - 7/31/2015 1:08:56 PM
Sensor [0]: SR315 NB Driving Dry - 111.2 - - - - - 7/31/2015 1:08:56 PM
Sensor [1]: I70 WB Driving Dry - 118.4 - - - - - 7/31/2015 1:08:56 PM
119-IR71S @ I270 (38007) Status Air Temp Sfc Temp Sub Temp Dew Temp Wind Precip Traffic Updated
Sensor [A]: Atmospheric - 33.1 - - 23.2 7.5 / N - - 1/20/2014 7:31:46 AM
Sensor [2]: I270 EB Passing Error - - - - - - - 1/20/2014 7:31:46 AM
120-US33 @ Hamilton Road (38010) Status Air Temp Sfc Temp Sub Temp Dew Temp Wind Precip Traffic Updated
Sensor [A]: Atmospheric - 84.6 - - 72.3 2.5 / SE - - 7/31/2015 1:11:16 PM
Sensor [0]: US33 EB Passing Dry - 105.8 - - - - - 7/31/2015 1:11:16 PM
121-I-670 Over Airport Connector (38014) Status Air Temp Sfc Temp Sub Temp Dew Temp Wind Precip Traffic Updated
Sensor [A]: Atmospheric - 90.7 - - 57.0 9.3 / W - - 7/31/2015 1:11:17 PM
Sensor [0]: Airport Connector Bridgedeck Dry - 117.3 - - - - - 7/31/2015 1:11:17 PM
Sensor [1]: I670 EB Passing Dry - 120.0 - - - - - 7/31/2015 1:11:17 PM
Sensor [2]: I670 WB Passing Dry - 117.3 - - - - - 7/31/2015 1:11:17 PM
122-Medina Line Rd. Over I-271 (612000) Status Air Temp Sfc Temp Sub Temp Dew Temp Wind Precip Traffic Updated
Sensor [A]: Atmospheric - 85.5 - - 49.6 5.6 / W - - 7/31/2015 1:10:07 PM
Sensor [0]: SB Bridge Dry - 111.4 - - - - - 7/31/2015 1:10:07 PM
Sensor [1]: SB Road Dry - 105.8 89.6 - - - - 7/31/2015 1:10:07 PM
123-Steels Corner Rd. /Mud Creek (612003) Status Air Temp Sfc Temp Sub Temp Dew Temp Wind Precip Traffic Updated
Sensor [A]: Atmospheric - 84.7 - - 52.7 7.5 / W - - 7/31/2015 1:10:09 PM
Sensor [0]: WB Bridge Dry - 118.6 - - - - - 7/31/2015 1:10:09 PM
Sensor [1]: WB Road Dry - 107.6 104.0 - - - - 7/31/2015 1:10:09 PM
124-Old Mill Rd. Over I-480 (612004) Status Air Temp Sfc Temp Sub Temp Dew Temp Wind Precip Traffic Updated
Sensor [A]: Atmospheric - 85.3 - - 54.0 6.2 / NW - - 7/31/2015 1:10:17 PM
Sensor [0]: I480 EB Driving Dry - 109.4 - - - - - 7/31/2015 1:10:17 PM
Sensor [1]: I480 WB Driving Dry - 107.6 80.6 - - - - 7/31/2015 1:10:17 PM
Sensor [2]: Old Mill Rd Bridgedeck Dry - 114.8 - - - - - 7/31/2015 1:10:17 PM
125-Ridgewood Rd. Over Rt 21 (612006) Status Air Temp Sfc Temp Sub Temp Dew Temp Wind Precip Traffic Updated
Sensor [A]: Atmospheric - 85.5 - - 52.2 3.7 / W - - 7/31/2015 1:10:20 PM
Sensor [0]: EB Bridge Deck Dry - 107.6 - - - - - 7/31/2015 1:10:20 PM
126-Killian Rd. Over I-77 (612011) Status Air Temp Sfc Temp Sub Temp Dew Temp Wind Precip Traffic Updated
Sensor [A]: Atmospheric - 82.9 - - 51.3 7.5 / NW - - 7/31/2015 1:10:21 PM
Sensor [0]: EB Bridge Dry - 118.6 89.8 - - - - 7/31/2015 1:10:21 PM
127-US 6 Williams County (582000) Status Air Temp Sfc Temp Sub Temp Dew Temp Wind Precip Traffic Updated
Sensor [A]: Atmospheric - 84.2 - - - 9.3 / SW - - 7/31/2015 1:10:17 PM
Sensor [2]: US6 EB Error - 120.6 84.7 - - - - 7/31/2015 1:10:17 PM
128-US 20 @ SR 49 (582001) Status Air Temp Sfc Temp Sub Temp Dew Temp Wind Precip Traffic Updated
Sensor [A]: Atmospheric - 82.8 - - 60.1 14.9 / W - - 7/31/2015 1:10:20 PM
Sensor [0]: US-20 EB Dry - 131.9 - - - - - 7/31/2015 1:10:20 PM
129-US 20 @ ALT US 20 (582002) Status Air Temp Sfc Temp Sub Temp Dew Temp Wind Precip Traffic Updated
Sensor [A]: Atmospheric - 85.3 - - 61.3 11.2 / W - - 7/31/2015 1:10:22 PM
Sensor [2]: SR-20A WB Approach Dry - 126.3 86.0 - - - - 7/31/2015 1:10:22 PM
Sensor [3]: SR-20A WB Deck Dry - 124.9 - - - - - 7/31/2015 1:10:22 PM
130-US 20A @ SLM 2.5 Fulton (582003) Status Air Temp Sfc Temp Sub Temp Dew Temp Wind Precip Traffic Updated
Sensor [A]: Atmospheric - 85.8 - - 23.2 9.3 / SW - - 7/31/2015 1:10:24 PM
Sensor [0]: US-20 EB Deck Error - - - - - - - 7/31/2015 1:10:24 PM
Sensor [1]: US-20 EB Approach Dry - 124.3 - - - - - 7/31/2015 1:10:24 PM
131-US 20 @ CR19 and Bean Creek (MM 9.0) (582004) Status Air Temp Sfc Temp Sub Temp Dew Temp Wind Precip Traffic Updated
Sensor [A]: Atmospheric - 83.5 - - - 14.9 / NW - - 7/31/2015 1:10:25 PM
Sensor [0]: US-20 WB Deck Dry - 112.6 - - - - - 7/31/2015 1:10:25 PM
Sensor [1]: US-20 EB Approach Error - - - - - - - 7/31/2015 1:10:25 PM
132-SR 64 @ County Road N (MM 6.4) (582005) Status Air Temp Sfc Temp Sub Temp Dew Temp Wind Precip Traffic Updated
Sensor [A]: Atmospheric - 83.7 - - 62.1 13.0 / SW - - 7/31/2015 1:10:33 PM
133-US 6 @ SLM .5 (582006) Status Air Temp Sfc Temp Sub Temp Dew Temp Wind Precip Traffic Updated
Sensor [A]: Atmospheric - 85.8 - - 59.0 15.5 / W - - 7/31/2015 1:10:40 PM
Sensor [0]: US-6 WB Dry - 120.9 68.4 - - - - 7/31/2015 1:10:40 PM
134-SR 108 @ SLM .5 (582007) Status Air Temp Sfc Temp Sub Temp Dew Temp Wind Precip Traffic Updated
Sensor [A]: Atmospheric - 83.7 - - 47.7 10.6 / W - - 7/31/2015 1:10:08 PM
135-US Rt 6 @ Maumee River (582008) Status Air Temp Sfc Temp Sub Temp Dew Temp Wind Precip Traffic Updated
Sensor [A]: Atmospheric - 74.7 - - 74.7 2.5 / E - - 7/29/2015 5:50:09 PM
Sensor [0]: US-6 EB Deck Error - 79.0 - - - - - 7/29/2015 5:50:09 PM
Sensor [1]: US-6 WB Deck Error - - - - - - - 7/29/2015 5:50:09 PM
136-Rt 65 South Henry County (582009) Status Air Temp Sfc Temp Sub Temp Dew Temp Wind Precip Traffic Updated
Sensor [A]: Atmospheric - 85.5 - - 54.1 11.2 / W - - 7/31/2015 1:10:29 PM
Sensor [0]: SR-65 NB Dry - 135.5 - - - - - 7/31/2015 1:10:29 PM
137-SR 64 @ County Road N (MM 6.4) (582010) Status Air Temp Sfc Temp Sub Temp Dew Temp Wind Precip Traffic Updated
Sensor [A]: Atmospheric - 87.4 - - 60.4 1.2 / SE - - 7/31/2015 1:10:30 PM
Sensor [0]: SR-64 EB Approach Error - - - - - - - 7/31/2015 1:10:30 PM
Sensor [1]: SR-64 EB @ RPU Dry - 134.1 - - - - - 7/31/2015 1:10:30 PM
138-SR 295 @ Maumee River (582011) Status Air Temp Sfc Temp Sub Temp Dew Temp Wind Precip Traffic Updated
Sensor [A]: Atmospheric - 84.7 - - 57.2 4.3 / N - - 7/31/2015 1:10:31 PM
Sensor [0]: SR-578 SB Maumee River Dry - 114.8 87.3 - - - - 7/31/2015 1:10:31 PM
Sensor [1]: SR-578 SB Dry - 127.4 - - - - - 7/31/2015 1:10:31 PM
139-I-80 & I-475 Lucas ***Under Construction*** (582012) Status Air Temp Sfc Temp Sub Temp Dew Temp Wind Precip Traffic Updated
Sensor [A]: Atmospheric - 72.1 - - 71.6 1.9 / SW - - 10/3/2013 12:40:42 PM
Sensor [0]: I-475 NB Deck Dry - 77.0 - - - - - 10/3/2013 12:40:42 PM
Sensor [1]: I-475 SB Approach Error - - - - - - - 10/3/2013 12:40:42 PM
140-IR 475 @ US 23 Split ***Under Construction*** (582013) Status Air Temp Sfc Temp Sub Temp Dew Temp Wind Precip Traffic Updated
Sensor [A]: Atmospheric - 32.5 - - 18.7 9.3 / Unknown - - 7/31/2015 1:10:51 PM
141-IR 75 @ SLM 4.9 475 Split (582014) Status Air Temp Sfc Temp Sub Temp Dew Temp Wind Precip Traffic Updated
Sensor [A]: Atmospheric - 86.4 - - 63.1 6.2 / NW - - 7/31/2015 1:10:09 PM
142 - I-280 @ Veterans Glass City Skyway (VGCS) (582016) Status Air Temp Sfc Temp Sub Temp Dew Temp Wind Precip Traffic Updated
Sensor [A]: Atmospheric - 82.8 - - 56.8 9.9 / SW - - 7/31/2015 1:10:12 PM
Sensor [1]: NB I-280 Center Lane Dry - 120.6 - - - - 69 / 59.0 7/31/2015 1:10:12 PM
Sensor [4]: SB I-280 Center Lane Dry - 116.1 - - - - 69 / 55.9 7/31/2015 1:10:12 PM
143-SR 2 @ MP 31.8 Lucas (582017) Status Air Temp Sfc Temp Sub Temp Dew Temp Wind Precip Traffic Updated
Sensor [A]: Atmospheric - 83.5 - - 56.7 9.3 / SW - - 7/31/2015 1:10:13 PM
Sensor [0]: SR-2 EB Deck Dry - 132.8 - - - - - 7/31/2015 1:10:13 PM
144-IR 75 & Eagleville Rd. (582018) Status Air Temp Sfc Temp Sub Temp Dew Temp Wind Precip Traffic Updated
Sensor [A]: Atmospheric - 76.6 - - 63.0 4.3 / NE - - 8/18/2014 12:00:17 PM
Sensor [0]: I-75 NB Deck Error - - - - - - - 8/18/2014 12:00:17 PM
Sensor [1]: I-75 SB Deck Error - - - - - - - 8/18/2014 12:00:17 PM
145-IR 75 @ SLM 18.36 Wood (582019) Status Air Temp Sfc Temp Sub Temp Dew Temp Wind Precip Traffic Updated
Sensor [A]: Atmospheric - 80.8 - - 54.1 2.5 / E - - 8/7/2014 1:00:20 PM
Sensor [0]: I-75 NB Approach Error - 112.6 - - - - - 8/7/2014 1:00:20 PM
Sensor [1]: I-75 SB Deck Dry - 108.3 - - - - - 8/7/2014 1:00:20 PM
146-I-75 @ I-475 Wood ***Under Construction*** (582020) Status Air Temp Sfc Temp Sub Temp Dew Temp Wind Precip Traffic Updated
Sensor [A]: Atmospheric - 83.8 - - 61.0 12.4 / W - - 7/31/2015 1:10:16 PM
147-I-75 @ I-80 Wood County (582021) Status Air Temp Sfc Temp Sub Temp Dew Temp Wind Precip Traffic Updated
Sensor [A]: Atmospheric - 85.3 - - 65.3 6.8 / SW - - 7/31/2015 1:10:19 PM
Sensor [0]: I-75 NB Deck Trace Moisture - 113.2 - - - - - 7/31/2015 1:10:19 PM
Sensor [1]: I-75 SB Deck Error - - - - - - - 7/31/2015 1:10:19 PM
148-US-6 @ Rt. 23 (582022) Status Air Temp Sfc Temp Sub Temp Dew Temp Wind Precip Traffic Updated
Sensor [A]: Atmospheric - 85.1 - - 59.4 8.7 / W - - 7/31/2015 1:10:21 PM
Sensor [0]: US-6 EB Dry - 114.8 - - - - 0 / 9.9 7/31/2015 1:10:21 PM
Sensor [1]: US-23 NB Dry - 114.8 - - - - 0 / 9.9 7/31/2015 1:10:21 PM
149-US-20 @ Lemoyne Rd. (582023) Status Air Temp Sfc Temp Sub Temp Dew Temp Wind Precip Traffic Updated
Sensor [A]: Atmospheric - 92.5 - - 66.4 9.3 / W - - 7/31/2015 1:10:24 PM
Sensor [0]: US-20 EB Departure Dry - 123.8 - - - - 16 / 60.3 7/31/2015 1:10:24 PM
150-IR 280 @ SR 420 and CR 308 Libbey Rd (582024) Status Air Temp Sfc Temp Sub Temp Dew Temp Wind Precip Traffic Updated
Sensor [A]: Atmospheric - 83.5 - - 60.1 11.2 / SW - - 7/31/2015 1:10:26 PM
151-SR 2 @ Portage River Bridge (582025) Status Air Temp Sfc Temp Sub Temp Dew Temp Wind Precip Traffic Updated
Sensor [A]: Atmospheric - 86.2 - - 60.4 3.7 / SW - - 7/31/2015 1:10:28 PM
Sensor [0]: SR-2 EB Departure Dry - 120.0 86.0 - - - - 7/31/2015 1:10:28 PM
Sensor [1]: SR-2 WB Deck Frost - -35.5 - - - - - 7/31/2015 1:10:28 PM
152-SR-2@28.5 Bay Br. (582026) Status Air Temp Sfc Temp Sub Temp Dew Temp Wind Precip Traffic Updated
Sensor [A]: Atmospheric - 85.1 - - 74.5 - - - 7/31/2015 1:10:30 PM
Sensor [3]: SR2 EB Driving Lane - Bridge Deck Dry - 117.5 - - - - 0 / 0.0 7/31/2015 1:10:30 PM
153-US-20 @ Sugar Creek (582027) Status Air Temp Sfc Temp Sub Temp Dew Temp Wind Precip Traffic Updated
Sensor [A]: Atmospheric - 86.0 - - 59.2 6.2 / SW - - 7/31/2015 1:10:06 PM
Sensor [0]: US-20 EB Driving Dry - 130.1 112.1 - - - 22 / 55.9 7/31/2015 1:10:06 PM
Sensor [1]: US-20 WB Passing Dry - 133.7 - - - - 5 / 64.0 7/31/2015 1:10:06 PM
154-US-6 @ Sandusky River Br (582028) Status Air Temp Sfc Temp Sub Temp Dew Temp Wind Precip Traffic Updated
Sensor [A]: Atmospheric - 84.9 - - 63.0 9.9 / W - - 7/31/2015 1:10:08 PM
Sensor [0]: US-6 EB Approach Dry - 115.9 - - - - - 7/31/2015 1:10:08 PM
Sensor [1]: US-6 WB Deck Dry - 112.3 - - - - - 7/31/2015 1:10:08 PM
155-US 6 @ Pickeral Creek (582029) Status Air Temp Sfc Temp Sub Temp Dew Temp Wind Precip Traffic Updated
Sensor [A]: Atmospheric - 58.6 - - 36.7 9.9 / W - - 7/31/2015 1:10:12 PM
Sensor [0]: US-6 WB Departure Error - - - - - - - 7/31/2015 1:10:12 PM
Sensor [1]: US-6 WB Deck Error - 100.4 - - - - - 7/31/2015 1:10:12 PM
156-CR 296 & US 20 MP 31.0 (582030) Status Air Temp Sfc Temp Sub Temp Dew Temp Wind Precip Traffic Updated
Sensor [A]: Atmospheric - 86.0 - - 61.9 9.3 / W - - 7/31/2015 1:10:14 PM
Sensor [0]: US-20 WB Dry - 125.8 88.0 - - - - 7/31/2015 1:10:14 PM
157-US 23 @ MP 5.5 Seneca (582031) Status Air Temp Sfc Temp Sub Temp Dew Temp Wind Precip Traffic Updated
Sensor [A]: Atmospheric - 83.8 - - 60.6 11.2 / SE - - 7/31/2015 1:10:16 PM
Sensor [0]: US-23 NB Dry - 118.9 - - - - - 7/31/2015 1:10:16 PM
158-SR 12 @ Mp 7.0 Seneca (582032) Status Air Temp Sfc Temp Sub Temp Dew Temp Wind Precip Traffic Updated
Sensor [A]: Atmospheric - 84.2 - - 59.2 10.6 / SW - - 7/31/2015 1:10:18 PM
Sensor [0]: SR-12 WB Dry - 132.8 - - - - - 7/31/2015 1:10:18 PM
159-US 224 @ SR 53 Seneca (582033) Status Air Temp Sfc Temp Sub Temp Dew Temp Wind Precip Traffic Updated
Sensor [A]: Atmospheric - 88.0 - - 57.4 1.9 / W - - 7/31/2015 1:10:20 PM
Sensor [0]: SR-224 EB Bridge Deck Dry - 133.7 - - - - - 7/31/2015 1:10:20 PM
Sensor [1]: US-224 EB Approach Dry - 134.6 - - - - - 7/31/2015 1:10:20 PM
160-SR 4 @ Aichholz Ditch near CR 8 (MM 2.4) (582034) Status Air Temp Sfc Temp Sub Temp Dew Temp Wind Precip Traffic Updated
Sensor [A]: Atmospheric - 83.8 - - 52.9 10.6 / N - - 7/31/2015 1:10:22 PM
Sensor [0]: SR-4 SB Deck Dry - 116.6 - - - - 1 / 9.9 7/31/2015 1:10:22 PM
Sensor [1]: SR-4 SB Departure Dry - 118.4 71.8 - - - 1 / 9.9 7/31/2015 1:10:22 PM
161-I-90 @ SR-252 (562000) Status Air Temp Sfc Temp Sub Temp Dew Temp Wind Precip Traffic Updated
Sensor [A]: Atmospheric - 85.6 - - 57.0 3.1 / W - - 7/31/2015 1:10:04 PM
Sensor [1]: I-90 WB N2 Lane Dry - 109.4 - - - - - 7/31/2015 1:10:04 PM
Sensor [2]: I-90 EB N1 Lane Dry - 109.4 - - - - - 7/31/2015 1:10:04 PM
162-I-90 @ Abbey Rd. (562001) Status Air Temp Sfc Temp Sub Temp Dew Temp Wind Precip Traffic Updated
Sensor [A]: Atmospheric - - - - - / Unknown - - -
Sensor [0]: I-90 EB N3 Lane Wet - 74.7 82.2 - - - - 8/21/2011 12:10:14 AM
Sensor [2]: I-90 WB N3 Lane Bridge Wet - 71.8 - - - - - 8/21/2011 12:10:14 AM
163-I-90 @ E. 140th (562002) Status Air Temp Sfc Temp Sub Temp Dew Temp Wind Precip Traffic Updated
Sensor [A]: Atmospheric - 80.4 - - 72.9 5.0 / W - - 7/31/2015 1:10:29 PM
Sensor [0]: I-90 WB N3 Lane Dry - 113.0 - - - - - 7/31/2015 1:10:29 PM
Sensor [1]: I-90 WB N3 Lane Bridge Dry - 117.0 - - - - - 7/31/2015 1:10:29 PM
164-I-271 @ I-90 (562003) Status Air Temp Sfc Temp Sub Temp Dew Temp Wind Precip Traffic Updated
Sensor [A]: Atmospheric - 86.0 - - 78.3 7.5 / W - - 7/31/2015 1:10:31 PM
Sensor [0]: I-271 NB TG I-90 EB Dry - 117.1 - - - - - 7/31/2015 1:10:31 PM
Sensor [1]: I-90 EB N2 Lane Bridge Dry - 111.2 - - - - - 7/31/2015 1:10:31 PM
Sensor [2]: I-271 NB TG I-90 WB Bridge Dry - 114.3 - - - - - 7/31/2015 1:10:31 PM
Sensor [3]: I-271 NB TG I-90 WB Dry - 119.8 91.4 - - - - 7/31/2015 1:10:31 PM
165-I-480 @ SR-10 (562004) Status Air Temp Sfc Temp Sub Temp Dew Temp Wind Precip Traffic Updated
Sensor [A]: Atmospheric - 84.0 - - 61.2 6.2 / W - - 7/31/2015 1:10:33 PM
Sensor [0]: I-480 EB N2 Lane Bridge Dry - 107.2 - - - - - 7/31/2015 1:10:33 PM
Sensor [1]: I-480 WB N2 Lane Bridge Dry - 104.0 - - - - - 7/31/2015 1:10:33 PM
Sensor [2]: I-480 EB N1 Lane Departure Dry - 111.2 - - - - - 7/31/2015 1:10:33 PM
166-I-71 @ Snow Rd. (562005) Status Air Temp Sfc Temp Sub Temp Dew Temp Wind Precip Traffic Updated
Sensor [A]: Atmospheric - 86.5 - - 61.0 4.3 / NW - - 7/31/2015 1:10:34 PM
Sensor [0]: I-71 NB N3 Lane Bridge Dry - 108.0 - - - - - 7/31/2015 1:10:34 PM
Sensor [1]: I-71 SB N3 Lane Bridge Dry - 108.1 - - - - - 7/31/2015 1:10:34 PM
Sensor [2]: I-71 NB N1 Lane Departure Dry - 113.0 - - - - - 7/31/2015 1:10:34 PM
167-I-77 @ I-480 (562006) Status Air Temp Sfc Temp Sub Temp Dew Temp Wind Precip Traffic Updated
Sensor [A]: Atmospheric - 86.0 - - 59.4 4.3 / SW - - 7/31/2015 1:10:35 PM
Sensor [0]: I-77 NB N2L Br @ SR-17 Error - - - - - - - 7/31/2015 1:10:35 PM
Sensor [1]: I-77 SB N2L Br @ SR-17 Error - - - - - - - 7/31/2015 1:10:35 PM
Sensor [3]: I-77 NB RL Br over I-480 Dry - 97.7 - - - - - 7/31/2015 1:10:35 PM
168-I-480 N @ Miles Rd. (562007) Status Air Temp Sfc Temp Sub Temp Dew Temp Wind Precip Traffic Updated
Sensor [A]: Atmospheric - 85.3 - - 57.2 6.8 / N - - 7/31/2015 1:10:02 PM
Sensor [0]: I-480 N WB N2 Lane Dry - 113.0 - - - - - 7/31/2015 1:10:02 PM
Sensor [1]: I-480 N WB N2 Lane Br Dry - 114.4 - - - - - 7/31/2015 1:10:02 PM
Sensor [2]: I-480 EB N2 Lane Br Dry - 109.4 - - - - - 7/31/2015 1:10:02 PM
169-I-271 @ US-322 (562008) Status Air Temp Sfc Temp Sub Temp Dew Temp Wind Precip Traffic Updated
Sensor [A]: Atmospheric - 82.6 - - 59.4 9.9 / NW - - 7/31/2015 1:10:04 PM
Sensor [0]: I-271 SB N2 Lane Br Dry - 107.6 - - - - - 7/31/2015 1:10:04 PM
Sensor [1]: I-271 SB N2 Lane Dry - 111.2 - - - - - 7/31/2015 1:10:04 PM
Sensor [2]: I-271 NB N2 Lane Br Dry - 107.6 - - - - - 7/31/2015 1:10:04 PM
Sensor [3]: I-271 NB N2 Lane Dry - 120.6 - - - - - 7/31/2015 1:10:04 PM
170-I-71 @ Drake Rd. (562009) Status Air Temp Sfc Temp Sub Temp Dew Temp Wind Precip Traffic Updated
Sensor [A]: Atmospheric - 86.9 - - 58.8 5.6 / NW - - 7/31/2015 1:10:05 PM
Sensor [0]: I-71 NB N2 Lane Dry - 127.0 86.4 - - - - 7/31/2015 1:10:05 PM
Sensor [1]: I-71 NB N2 Lane Br Dry - 120.9 - - - - - 7/31/2015 1:10:05 PM
Sensor [2]: I-71 SB N2 Lane Br Dry - 120.0 - - - - - 7/31/2015 1:10:05 PM
171-I-77 @ SR-82 (562010) Status Air Temp Sfc Temp Sub Temp Dew Temp Wind Precip Traffic Updated
Sensor [A]: Atmospheric - 86.4 - - 59.9 9.9 / N - - 7/31/2015 1:10:08 PM
Sensor [0]: I-77 NB N2 Lane Br Dry - 116.6 - - - - - 7/31/2015 1:10:08 PM
Sensor [1]: I-77 SB N2 Lane Br Dry - 107.6 - - - - - 7/31/2015 1:10:08 PM
Sensor [2]: I-77 NB N2 Lane Dry - 118.4 - - - - - 7/31/2015 1:10:08 PM
172-US-422 @ Chagrin Blvd. (562011) Status Air Temp Sfc Temp Sub Temp Dew Temp Wind Precip Traffic Updated
Sensor [A]: Atmospheric - 83.1 - - 52.2 7.5 / SW - - 7/31/2015 1:10:10 PM
Sensor [0]: US-422 WB N2 Lane Error - - - - - - - 7/31/2015 1:10:10 PM
Sensor [1]: US-422 WB N2 Lane Br Dry - 104.0 - - - - - 7/31/2015 1:10:10 PM
Sensor [2]: US-422 EB N2 Lane Br Dry - 105.8 - - - - - 7/31/2015 1:10:10 PM
173-US-422 @ SR-44 (562012) Status Air Temp Sfc Temp Sub Temp Dew Temp Wind Precip Traffic Updated
Sensor [A]: Atmospheric - 80.8 - - 58.6 1.9 / W - - 7/31/2015 1:10:12 PM
Sensor [0]: US-422 EB N2 Lane Bridge Dry - 98.6 - - - - - 7/31/2015 1:10:12 PM
174- SR-528 @SR-87 (562013) Status Air Temp Sfc Temp Sub Temp Dew Temp Wind Precip Traffic Updated
Sensor [A]: Atmospheric - 84.9 - - 63.9 9.3 / NW - - 7/31/2015 1:10:03 PM
Sensor [0]: SR528 NB Dry - 118.4 - - - - - 7/31/2015 1:10:03 PM
Sensor [1]: SR87 WB Dry - 120.2 - - - - - 7/31/2015 1:10:03 PM
175-SR-44 @ Mentor Rd. (562014) Status Air Temp Sfc Temp Sub Temp Dew Temp Wind Precip Traffic Updated
Sensor [A]: Atmospheric - 82.9 - - 59.4 6.8 / N - - 7/31/2015 1:10:04 PM
Sensor [0]: SR44 NB Dry - 116.6 86.0 - - - - 7/31/2015 1:10:04 PM
176-SR-528 @ SR-166 (562015) Status Air Temp Sfc Temp Sub Temp Dew Temp Wind Precip Traffic Updated
Sensor [A]: Atmospheric - 82.6 - - 56.5 6.8 / N - - 7/31/2015 1:10:07 PM
Sensor [0]: SR-528 SB N of SR-166 Dry - 131.0 - - - - - 7/31/2015 1:10:07 PM
Sensor [1]: SR-166 WB W of SR-528 Dry - 131.0 - - - - - 7/31/2015 1:10:07 PM
177-I-90 @ Hermitage Rd. (562016) Status Air Temp Sfc Temp Sub Temp Dew Temp Wind Precip Traffic Updated
Sensor [A]: Atmospheric - 82.9 - - 66.9 6.8 / SW - - 7/31/2015 1:10:09 PM
Sensor [0]: I-90 WB N2 Lane Br Dry - 109.4 - - - - - 7/31/2015 1:10:09 PM
Sensor [1]: I-90 EB N2 Lane Br Dry - 111.2 - - - - - 7/31/2015 1:10:09 PM
Sensor [2]: I90 EB Driving Lane Dry - 105.8 - - - - - 7/31/2015 1:10:09 PM
178-I-90 @ Paine Rd. (562017) Status Air Temp Sfc Temp Sub Temp Dew Temp Wind Precip Traffic Updated
Sensor [A]: Atmospheric - 84.4 - - 61.7 5.6 / W - - 7/31/2015 1:10:12 PM
Sensor [0]: I-90 WB N2 Lane Br Dry - 109.4 - - - - - 7/31/2015 1:10:12 PM
Sensor [1]: I-90 EB N2 Lane Br Dry - 111.2 - - - - - 7/31/2015 1:10:12 PM
Sensor [2]: I90 EB Driving Lane Dry - 113.0 84.2 - - - - 7/31/2015 1:10:12 PM
179-US-20 @ Parmly Rd. (562018) Status Air Temp Sfc Temp Sub Temp Dew Temp Wind Precip Traffic Updated
Sensor [A]: Atmospheric - 83.5 - - 70.9 2.5 / NW - - 7/31/2015 1:10:13 PM
Sensor [0]: US-20 WB N2 Lane Wet - 136.4 - - - - - 7/31/2015 1:10:13 PM
180-I270 @ US33 (38015) Status Air Temp Sfc Temp Sub Temp Dew Temp Wind Precip Traffic Updated
Sensor [A]: Atmospheric - 83.8 - - 70.7 11.2 / NW - - 7/31/2015 1:10:04 PM
181-US 32 @ CR 16 Union Hill Rd (MM 24.8) (200180) Status Air Temp Sfc Temp Sub Temp Dew Temp Wind Precip Traffic Updated
Sensor [A]: Atmospheric - 82.8 - - 61.5 6.2 / SW - - 7/31/2015 1:11:18 PM
Sensor [0]: US32 EB Driving Dry - 120.2 - - - - 1 / 9.9 7/31/2015 1:11:18 PM
Sensor [1]: US32 WB Driving Dry - 120.2 - - - - 4 / 9.9 7/31/2015 1:11:18 PM
182-I71 @ SR665 Grove City Outpost (200181) Status Air Temp Sfc Temp Sub Temp Dew Temp Wind Precip Traffic Updated
Sensor [A]: Atmospheric - 84.0 - - 62.8 6.2 / N - - 7/31/2015 1:12:02 PM
Sensor [0]: IR71 NB Passing Dry - 111.2 - - - - 0 / 9.9 7/31/2015 1:12:02 PM
183-US30 @ SR68 (200182) Status Air Temp Sfc Temp Sub Temp Dew Temp Wind Precip Traffic Updated
Sensor [A]: Atmospheric - 82.6 - - 58.6 9.9 / SW - - 7/31/2015 1:12:38 PM
Sensor [1]: US30 WB Driving Bridgedeck Dry - 107.6 - - - - - 7/31/2015 1:12:38 PM
184-IR 71 @ Stewart Rd (MM 10) (80000) Status Air Temp Sfc Temp Sub Temp Dew Temp Wind Precip Traffic Updated
Sensor [A]: Atmospheric - 86.4 - - 60.1 5.6 / NW - - 7/31/2015 1:10:13 PM
Sensor [0]: I71 NB Driving Dry - 111.2 - - - - - 7/31/2015 1:10:13 PM
Sensor [1]: I71 NB Passing Dry - 113.0 - - - - - 7/31/2015 1:10:13 PM
185 - SR235 @ SR67 (80001) Status Air Temp Sfc Temp Sub Temp Dew Temp Wind Precip Traffic Updated
Sensor [A]: Atmospheric - 82.8 - - 59.7 11.2 / NW - - 7/31/2015 1:10:15 PM
Sensor [0]: SR-67 EB Dry - 123.8 - - - - - 7/31/2015 1:10:15 PM
186-SR49 @ SR81 (200185) Status Air Temp Sfc Temp Sub Temp Dew Temp Wind Precip Traffic Updated
Sensor [A]: Atmospheric - 84.4 - - 59.4 5.0 / W - - 7/31/2015 1:12:44 PM
Sensor [0]: SR-81 EB Approach Dry - 137.3 - - - - - 7/31/2015 1:12:44 PM
Sensor [1]: SR-81 EB Bridgedeck Dry - 114.8 - - - - - 7/31/2015 1:12:44 PM
187-SR15 @ SR613 (200186) Status Air Temp Sfc Temp Sub Temp Dew Temp Wind Precip Traffic Updated
Sensor [A]: Atmospheric - 84.6 - - 60.8 8.7 / SW - - 7/31/2015 1:08:15 PM
Sensor [0]: SR15 NB Lane Dry - 115.7 - - - - - 7/31/2015 1:08:15 PM
188-SR2 @ INDIANA LINE (200187) Status Air Temp Sfc Temp Sub Temp Dew Temp Wind Precip Traffic Updated
Sensor [A]: Atmospheric - 82.9 - - 59.9 10.6 / W - - 7/31/2015 1:09:53 PM
Sensor [0]: SR2 EB Lane Dry - 116.2 - - - - - 7/31/2015 1:09:53 PM